Time;durP1;ratioP1;P1;durP2;ratioP2;P2;SDS_P1;SDS_P2;PMS_P1;PMS_P2;Temp;Humidity;BMP_temperature;BMP_pressure;BME280_temperature;BME280_humidity;BME280_pressure;Samples;Min_cycle;Max_cycle;Signal;HPM_P1;HPM_P2
2022/09/22 00:01:26;;;;;;;0.57;0.57;;;;;;;12.34;88.82;99541.97;5092012;28;20257;-61
2022/09/22 00:03:56;;;;;;;0.60;0.60;;;;;;;12.27;88.69;99530.25;5091228;28;20644;-61
2022/09/22 00:06:26;;;;;;;0.57;0.57;;;;;;;12.21;89.71;99530.47;5090699;28;20203;-61
2022/09/22 00:08:54;;;;;;;0.47;0.47;;;;;;;12.28;89.68;99539.63;5090243;28;20264;-61
2022/09/22 00:11:23;;;;;;;0.50;0.50;;;;;;;12.27;90.00;99540.53;5092156;28;20202;-61
2022/09/22 00:13:52;;;;;;;0.40;0.40;;;;;;;12.24;90.40;99530.38;5092915;28;20246;-60
2022/09/22 00:16:21;;;;;;;0.50;0.50;;;;;;;12.12;90.36;99509.41;5092367;28;20245;-61
2022/09/22 00:18:47;;;;;;;0.50;0.50;;;;;;;12.27;90.37;99529.41;5092656;28;20191;-61
2022/09/22 00:21:17;;;;;;;0.50;0.50;;;;;;;12.26;90.25;99533.72;5091795;28;20260;-61
2022/09/22 00:23:46;;;;;;;0.50;0.50;;;;;;;12.25;90.11;99529.47;5092072;28;20220;-61
2022/09/22 00:26:15;;;;;;;0.40;0.40;;;;;;;12.18;90.67;99524.59;5091811;28;20291;-60
2022/09/22 00:28:44;;;;;;;0.50;0.50;;;;;;;12.24;90.10;99532.09;5091627;28;20261;-61
2022/09/22 00:31:13;;;;;;;0.60;0.60;;;;;;;12.19;90.29;99527.09;5091526;28;20640;-61
2022/09/22 00:33:41;;;;;;;0.50;0.50;;;;;;;12.08;90.91;99524.91;5091559;28;20199;-61
2022/09/22 00:36:09;;;;;;;0.50;0.50;;;;;;;12.09;90.67;99528.31;5091612;28;20275;-61
2022/09/22 00:38:38;;;;;;;0.40;0.40;;;;;;;12.04;90.42;99527.63;5092228;28;20327;-61
2022/09/22 00:41:09;;;;;;;0.40;0.40;;;;;;;12.02;90.38;99524.25;5091650;28;20305;-61
2022/09/22 00:43:38;;;;;;;0.40;0.40;;;;;;;12.00;90.26;99524.34;5091715;28;20211;-61
2022/09/22 00:46:13;;;;;;;0.50;0.50;;;;;;;12.00;89.74;99541.47;5091652;28;20257;-61
2022/09/22 00:48:47;;;;;;;0.50;0.50;;;;;;;11.98;89.16;99531.25;5091729;28;20194;-61
2022/09/22 00:51:18;;;;;;;0.50;0.50;;;;;;;11.88;88.91;99526.47;5091414;28;20253;-61
2022/09/22 00:53:45;;;;;;;0.50;0.50;;;;;;;11.87;89.22;99540.19;5089538;28;20200;-61
2022/09/22 00:56:16;;;;;;;0.50;0.50;;;;;;;11.85;89.49;99526.59;5091709;28;20191;-61
2022/09/22 00:58:48;;;;;;;0.60;0.60;;;;;;;11.83;89.85;99534.31;5091870;28;20191;-61
2022/09/22 01:01:15;;;;;;;0.50;0.50;;;;;;;11.79;90.55;99521.66;5090364;28;20199;-60
2022/09/22 01:03:44;;;;;;;0.40;0.40;;;;;;;11.78;90.95;99525.09;5090050;28;20215;-61
2022/09/22 01:06:14;;;;;;;0.50;0.50;;;;;;;11.76;91.73;99526.91;5091039;28;20235;-61
2022/09/22 01:08:42;;;;;;;0.50;0.50;;;;;;;11.74;91.80;99520.94;5090611;28;20217;-61
2022/09/22 01:11:10;;;;;;;0.50;0.50;;;;;;;11.77;91.82;99523.41;5090572;28;20199;-61
2022/09/22 01:13:48;;;;;;;0.60;0.60;;;;;;;11.80;91.92;99525.88;5091295;28;20226;-60
2022/09/22 01:16:28;;;;;;;0.50;0.50;;;;;;;11.79;92.46;99519.94;5089207;28;20207;-61
2022/09/22 01:19:16;;;;;;;0.50;0.50;;;;;;;11.85;92.30;99526.59;5088945;28;20191;-61
2022/09/22 01:21:50;;;;;;;0.60;0.60;;;;;;;11.93;92.58;99525.44;5089739;28;20199;-61
2022/09/22 01:24:59;;;;;;;0.60;0.60;;;;;;;11.98;92.57;99522.72;5090413;28;20218;-60
2022/09/22 01:28:03;;;;;;;0.40;0.40;;;;;;;11.92;92.85;99517.78;5027775;28;20212;-61
2022/09/22 01:30:37;;;;;;;0.70;0.70;;;;;;;11.78;93.00;99509.69;5011161;28;20256;-61
2022/09/22 01:33:31;;;;;;;0.50;0.50;;;;;;;11.81;93.57;99519.84;5068431;28;20625;-61
2022/09/22 01:36:08;;;;;;;0.40;0.40;;;;;;;11.77;94.08;99529.41;5082562;28;20251;-61
2022/09/22 01:38:42;;;;;;;0.40;0.40;;;;;;;11.73;94.70;99521.84;5090882;28;20244;-61
2022/09/22 01:41:16;;;;;;;0.50;0.50;;;;;;;11.56;94.81;99509.53;5090496;28;20196;-61
2022/09/22 01:43:49;;;;;;;0.40;0.40;;;;;;;11.57;95.51;99524.88;5090852;28;20587;-61
2022/09/22 01:46:23;;;;;;;0.70;0.70;;;;;;;11.52;96.17;99513.94;5090643;28;20682;-61
2022/09/22 01:48:53;;;;;;;0.50;0.50;;;;;;;11.47;96.25;99512.41;5090941;28;20195;-61
2022/09/22 01:51:26;;;;;;;0.60;0.60;;;;;;;11.44;96.33;99518.44;5090754;28;20245;-61
2022/09/22 01:53:57;;;;;;;0.40;0.40;;;;;;;11.44;96.63;99520.16;5091079;28;20195;-61
2022/09/22 01:56:26;;;;;;;0.40;0.40;;;;;;;11.39;96.81;99525.47;5089359;28;20213;-61
2022/09/22 01:58:58;;;;;;;0.50;0.50;;;;;;;11.40;96.06;99524.59;5088066;28;20199;-61
2022/09/22 02:01:31;;;;;;;0.43;0.43;;;;;;;11.50;95.62;99525.94;5088634;28;20651;-61
2022/09/22 02:04:03;;;;;;;0.40;0.40;;;;;;;11.54;95.91;99529.25;5090751;28;20276;-61
2022/09/22 02:06:33;;;;;;;0.50;0.50;;;;;;;11.52;95.50;99513.94;5089819;28;20252;-61
2022/09/22 02:09:05;;;;;;;0.50;0.50;;;;;;;11.52;95.93;99518.22;5089895;28;20211;-61
2022/09/22 02:11:31;;;;;;;0.40;0.40;;;;;;;11.52;95.57;99516.50;5089616;28;20206;-61
2022/09/22 02:13:59;;;;;;;0.60;0.60;;;;;;;11.53;95.43;99519.91;5090215;28;20272;-61
2022/09/22 02:16:27;;;;;;;0.40;0.40;;;;;;;11.54;95.31;99519.84;5089062;28;20207;-61
2022/09/22 02:18:59;;;;;;;0.50;0.50;;;;;;;11.35;95.02;99492.22;5086743;28;20208;-61
2022/09/22 02:21:27;;;;;;;0.40;0.40;;;;;;;11.49;95.48;99513.19;5089287;28;20267;-61
2022/09/22 02:23:54;;;;;;;0.60;0.60;;;;;;;11.31;95.15;99491.47;5090183;28;20242;-60
2022/09/22 02:26:24;;;;;;;0.43;0.43;;;;;;;11.47;95.33;99515.78;5089885;28;20204;-63
2022/09/22 02:28:58;;;;;;;0.50;0.50;;;;;;;11.45;95.42;99512.44;5090114;28;20637;-61
2022/09/22 02:31:29;;;;;;;0.50;0.50;;;;;;;11.39;95.55;99507.50;5089791;28;20586;-61
2022/09/22 02:33:57;;;;;;;0.43;0.43;;;;;;;11.36;96.21;99510.16;5090018;28;20199;-61
2022/09/22 02:36:34;;;;;;;0.40;0.40;;;;;;;11.35;96.62;99513.59;5089869;28;20196;-60
2022/09/22 02:39:08;;;;;;;0.50;0.50;;;;;;;11.32;97.31;99506.00;5089793;28;20732;-61
2022/09/22 02:41:47;;;;;;;0.40;0.40;;;;;;;11.30;97.93;99507.78;5087849;28;20195;-61
2022/09/22 02:44:18;;;;;;;0.50;0.50;;;;;;;11.30;98.16;99512.94;5089898;28;20207;-60
2022/09/22 02:46:53;;;;;;;0.40;0.40;;;;;;;11.31;98.27;99509.44;5089797;28;20207;-60
2022/09/22 02:49:21;;;;;;;0.50;0.50;;;;;;;11.30;97.85;99512.94;5088450;28;20199;-60
2022/09/22 02:51:49;;;;;;;0.40;0.40;;;;;;;11.33;97.71;99509.41;5089807;28;20572;-60
2022/09/22 02:54:16;;;;;;;0.43;0.43;;;;;;;11.34;97.60;99514.47;5089810;28;20226;-61
2022/09/22 02:56:44;;;;;;;0.60;0.60;;;;;;;11.35;97.23;99511.03;5088538;28;20199;-61
2022/09/22 02:59:11;;;;;;;0.47;0.47;;;;;;;11.34;97.84;99504.22;5088351;28;20683;-61
2022/09/22 03:01:38;;;;;;;0.70;0.70;;;;;;;11.33;97.14;99501.72;5090138;28;20587;-61
2022/09/22 03:04:06;;;;;;;0.40;0.40;;;;;;;11.35;97.47;99505.91;5087326;28;20215;-61
2022/09/22 03:06:33;;;;;;;0.50;0.50;;;;;;;11.35;96.92;99511.03;5088243;28;20204;-61
2022/09/22 03:09:00;;;;;;;0.50;0.50;;;;;;;11.30;97.29;99512.09;5089800;28;20199;-61
2022/09/22 03:11:27;;;;;;;0.43;0.43;;;;;;;11.20;97.75;99506.41;5089768;28;20192;-61
2022/09/22 03:13:54;;;;;;;0.40;0.40;;;;;;;11.23;98.38;99519.13;5089754;28;20227;-61
2022/09/22 03:16:21;;;;;;;0.50;0.50;;;;;;;11.21;98.84;99518.31;5089564;28;20252;-61
2022/09/22 03:18:48;;;;;;;0.50;0.50;;;;;;;11.22;99.30;99514.88;5093178;28;20210;-62
2022/09/22 03:21:16;;;;;;;0.70;0.70;;;;;;;11.18;100.00;99518.41;5093003;28;20195;-61
2022/09/22 03:23:42;;;;;;;0.43;0.43;;;;;;;11.08;99.85;99496.53;5093193;28;20264;-61
2022/09/22 03:26:09;;;;;;;0.40;0.40;;;;;;;11.17;100.00;99511.63;5092745;28;20675;-60
2022/09/22 03:28:36;;;;;;;0.40;0.40;;;;;;;11.14;100.00;99514.28;5093380;28;20272;-61
2022/09/22 03:31:03;;;;;;;0.40;0.40;;;;;;;11.13;100.00;99519.44;5092939;28;20354;-61
2022/09/22 03:33:29;;;;;;;0.43;0.43;;;;;;;11.10;100.00;99522.94;5093141;28;20256;-61
2022/09/22 03:35:56;;;;;;;0.60;0.60;;;;;;;11.10;100.00;99525.53;5095289;28;20250;-61
2022/09/22 03:38:24;;;;;;;0.50;0.50;;;;;;;11.09;100.00;99516.13;5092282;28;20206;-61
2022/09/22 03:40:52;;;;;;;0.70;0.70;;;;;;;11.11;100.00;99521.22;5092541;28;20191;-61
2022/09/22 03:43:19;;;;;;;0.57;0.57;;;;;;;11.10;100.00;99524.69;5092145;28;20505;-61
2022/09/22 03:45:46;;;;;;;0.47;0.47;;;;;;;11.08;100.00;99523.00;5092300;28;20211;-61
2022/09/22 03:48:13;;;;;;;0.60;0.60;;;;;;;11.06;100.00;99529.06;5092237;28;20215;-61
2022/09/22 03:50:40;;;;;;;0.40;0.40;;;;;;;10.98;100.00;99525.91;5092893;28;20291;-60
2022/09/22 03:53:06;;;;;;;0.50;0.50;;;;;;;10.84;100.00;99512.63;5091636;28;20712;-61
2022/09/22 03:55:36;;;;;;;0.50;0.50;;;;;;;10.87;100.00;99527.94;5092795;28;20203;-61
2022/09/22 03:58:03;;;;;;;0.50;0.50;;;;;;;10.88;100.00;99534.75;5091517;28;20294;-60
2022/09/22 04:00:30;;;;;;;0.53;0.53;;;;;;;10.86;100.00;99539.06;5091924;28;20237;-61
2022/09/22 04:02:57;;;;;;;0.50;0.50;;;;;;;10.81;100.00;99543.50;5091867;28;20644;-61
2022/09/22 04:05:24;;;;;;;0.50;0.50;;;;;;;10.83;100.00;99542.56;5092159;28;20298;-60
2022/09/22 04:07:50;;;;;;;0.40;0.40;;;;;;;10.85;100.00;99540.81;5092178;28;20203;-61
2022/09/22 04:10:17;;;;;;;0.57;0.57;;;;;;;10.66;100.00;99510.59;5091716;28;20199;-61
2022/09/22 04:12:45;;;;;;;0.40;0.40;;;;;;;10.78;100.00;99543.59;5092215;28;20195;-61
2022/09/22 04:15:13;;;;;;;0.60;0.60;;;;;;;10.72;100.00;99538.63;5091439;28;20223;-61
2022/09/22 04:17:39;;;;;;;0.50;0.50;;;;;;;10.79;100.00;99551.22;5091307;28;20191;-60
2022/09/22 04:20:10;;;;;;;0.50;0.50;;;;;;;10.74;100.00;99541.97;5091839;28;20195;-61
2022/09/22 04:22:37;;;;;;;0.57;0.57;;;;;;;10.81;100.00;99548.63;5092319;28;20192;-61
2022/09/22 04:25:04;;;;;;;0.40;0.40;;;;;;;10.72;100.00;99554.88;5091535;28;20216;-60
2022/09/22 04:27:31;;;;;;;0.40;0.40;;;;;;;10.69;100.00;99549.81;5090644;28;20207;-61
2022/09/22 04:29:59;;;;;;;0.40;0.40;;;;;;;10.69;100.00;99548.97;5090645;28;20195;-61
2022/09/22 04:32:26;;;;;;;0.40;0.40;;;;;;;10.65;100.00;99547.38;5091547;28;20230;-62
2022/09/22 04:34:53;;;;;;;0.53;0.53;;;;;;;10.60;100.00;99549.25;5091677;28;20617;-60
2022/09/22 04:37:19;;;;;;;0.40;0.40;;;;;;;10.57;100.00;99552.72;5091123;28;20245;-61
2022/09/22 04:39:46;;;;;;;0.50;0.50;;;;;;;10.57;100.00;99557.84;5091491;28;20249;-61
2022/09/22 04:42:13;;;;;;;0.40;0.40;;;;;;;10.60;100.00;99554.38;5091407;28;20199;-61
2022/09/22 04:44:40;;;;;;;0.40;0.40;;;;;;;10.61;100.00;99556.88;5091259;28;20215;-61
2022/09/22 04:47:08;;;;;;;0.40;0.40;;;;;;;10.67;100.00;99548.16;5091424;28;20610;-60
2022/09/22 04:49:35;;;;;;;0.50;0.50;;;;;;;10.62;100.00;99537.22;5091437;28;20268;-61
2022/09/22 04:52:02;;;;;;;0.60;0.60;;;;;;;10.72;100.00;99554.00;5090528;28;20199;-61
2022/09/22 04:54:28;;;;;;;0.50;0.50;;;;;;;10.83;100.00;99551.97;5089903;28;20199;-61
2022/09/22 04:56:55;;;;;;;0.40;0.40;;;;;;;10.84;100.00;99561.34;5091199;28;20215;-62
2022/09/22 04:59:22;;;;;;;0.50;0.50;;;;;;;10.91;100.00;99557.72;5090858;28;20564;-61
2022/09/22 05:01:49;;;;;;;0.40;0.40;;;;;;;10.95;100.00;99559.34;5091530;28;20260;-61
2022/09/22 05:04:17;;;;;;;0.50;0.50;;;;;;;11.09;100.00;99559.75;5088952;28;20202;-60
2022/09/22 05:06:44;;;;;;;0.50;0.50;;;;;;;11.22;100.00;99558.50;5087172;28;20207;-61
2022/09/22 05:09:11;;;;;;;0.50;0.50;;;;;;;11.39;100.00;99563.97;5084530;28;20586;-62
2022/09/22 05:11:38;;;;;;;0.50;0.50;;;;;;;11.60;100.00;99562.44;5090437;28;20685;-61
2022/09/22 05:14:05;;;;;;;0.50;0.50;;;;;;;11.76;99.61;99562.84;5090416;28;20223;-61
2022/09/22 05:16:32;;;;;;;0.43;0.43;;;;;;;11.95;98.30;99566.50;5091037;28;20195;-62
2022/09/22 05:18:59;;;;;;;0.50;0.50;;;;;;;12.11;97.34;99559.94;5090768;28;20209;-62
2022/09/22 05:21:27;;;;;;;0.67;0.67;;;;;;;12.28;96.42;99567.91;5090720;28;20245;-62
2022/09/22 05:23:54;;;;;;;0.50;0.50;;;;;;;12.32;95.66;99564.34;5090948;28;20199;-61
2022/09/22 05:26:21;;;;;;;0.50;0.50;;;;;;;12.37;95.73;99562.47;5090173;28;20223;-62
2022/09/22 05:28:49;;;;;;;0.60;0.60;;;;;;;12.47;95.73;99548.38;5090436;28;20220;-61
2022/09/22 05:31:16;;;;;;;0.50;0.50;;;;;;;12.66;93.01;99553.72;5090547;28;20217;-61
2022/09/22 05:33:43;;;;;;;0.50;0.50;;;;;;;12.83;93.32;99556.50;5088250;28;20736;-62
2022/09/22 05:36:10;;;;;;;0.50;0.50;;;;;;;13.02;91.91;99561.81;5089669;28;20240;-61
2022/09/22 05:38:38;;;;;;;0.57;0.57;;;;;;;13.26;91.65;99555.75;5089826;28;20203;-62
2022/09/22 05:41:05;;;;;;;0.40;0.40;;;;;;;13.47;90.41;99551.53;5089296;28;20629;-62
2022/09/22 05:43:32;;;;;;;0.40;0.40;;;;;;;13.62;88.63;99554.31;5090033;28;20199;-62
2022/09/22 05:45:58;;;;;;;0.40;0.40;;;;;;;13.77;87.39;99558.00;5090066;28;20587;-62
2022/09/22 05:48:25;;;;;;;0.40;0.40;;;;;;;13.92;86.85;99551.41;5089596;28;20237;-62
2022/09/22 05:50:52;;;;;;;0.40;0.40;;;;;;;14.23;85.37;99556.09;5090787;28;20681;-62
2022/09/22 05:53:19;;;;;;;0.50;0.50;;;;;;;14.24;83.88;99561.22;5089454;28;20256;-62
2022/09/22 05:55:47;;;;;;;0.40;0.40;;;;;;;14.26;84.60;99563.72;5088576;28;20199;-62
2022/09/22 05:58:13;;;;;;;0.50;0.50;;;;;;;14.35;84.61;99571.94;5089333;28;20197;-62
2022/09/22 06:00:41;;;;;;;0.50;0.50;;;;;;;14.53;83.82;99560.84;5090139;28;20229;-62
2022/09/22 06:03:08;;;;;;;0.53;0.53;;;;;;;14.82;83.65;99561.28;5090276;28;20272;-62
2022/09/22 06:05:35;;;;;;;0.60;0.60;;;;;;;14.89;81.58;99562.69;5090294;28;20273;-62
2022/09/22 06:08:05;;;;;;;0.40;0.40;;;;;;;15.08;81.25;99566.09;5090104;28;20195;-63
2022/09/22 06:10:33;;;;;;;0.43;0.43;;;;;;;15.25;79.90;99566.16;5088564;28;20263;-62
2022/09/22 06:13:01;;;;;;;0.50;0.50;;;;;;;15.16;80.39;99556.25;5089919;28;20203;-62
2022/09/22 06:15:29;;;;;;;0.40;0.40;;;;;;;15.21;78.63;99562.06;5089976;28;20262;-62
2022/09/22 06:17:56;;;;;;;0.40;0.40;;;;;;;15.23;79.33;99567.97;5086857;28;20683;-62
2022/09/22 06:20:23;;;;;;;0.47;0.47;;;;;;;15.37;80.01;99568.19;5089468;28;20237;-62
2022/09/22 06:22:50;;;;;;;0.53;0.53;;;;;;;15.64;79.39;99572.06;5087783;28;20204;-63
2022/09/22 06:25:17;;;;;;;0.40;0.40;;;;;;;15.85;76.21;99571.94;5089509;28;20219;-62
2022/09/22 06:27:45;;;;;;;0.50;0.50;;;;;;;15.86;75.87;99573.63;5087702;28;20248;-63
2022/09/22 06:30:14;;;;;;;0.50;0.50;;;;;;;15.83;76.54;99578.94;5089003;28;20203;-63
2022/09/22 06:32:42;;;;;;;0.50;0.50;;;;;;;15.79;75.19;99580.00;5089698;28;20647;-63
2022/09/22 06:35:10;;;;;;;0.40;0.40;;;;;;;15.90;75.98;99577.69;5089008;28;20196;-61
2022/09/22 06:37:37;;;;;;;0.40;0.40;;;;;;;16.11;73.24;99579.25;5089673;28;20295;-62
2022/09/22 06:40:06;;;;;;;0.70;0.70;;;;;;;16.32;72.84;99583.34;5089784;28;20199;-62
2022/09/22 06:42:33;;;;;;;0.40;0.40;;;;;;;16.54;71.22;99594.25;5089979;28;20677;-62
2022/09/22 06:45:03;;;;;;;0.60;0.60;;;;;;;16.70;70.70;99584.81;5088523;28;20666;-62
2022/09/22 06:47:32;;;;;;;0.47;0.47;;;;;;;16.72;70.42;99571.81;5088971;28;20203;-62
2022/09/22 06:50:01;;;;;;;0.43;0.43;;;;;;;16.85;70.25;99582.34;5088534;28;20203;-61
2022/09/22 06:52:27;;;;;;;0.53;0.53;;;;;;;16.84;70.84;99583.25;5091054;28;20211;-62
2022/09/22 06:54:57;;;;;;;0.50;0.50;;;;;;;16.80;70.44;99585.19;5092699;28;20203;-62
2022/09/22 06:57:26;;;;;;;0.40;0.40;;;;;;;16.92;70.78;99578.53;5093121;28;20286;-63
2022/09/22 06:59:53;;;;;;;0.40;0.40;;;;;;;16.80;69.40;99573.06;5094104;28;20249;-61
2022/09/22 07:02:26;;;;;;;0.43;0.43;;;;;;;16.89;69.38;99576.09;5093748;28;20199;-64
2022/09/22 07:04:54;;;;;;;0.40;0.40;;;;;;;16.79;69.59;99574.00;5093293;28;20572;-63
2022/09/22 07:07:22;;;;;;;0.50;0.50;;;;;;;16.94;69.97;99576.69;5093262;28;20203;-64
2022/09/22 07:09:48;;;;;;;0.40;0.40;;;;;;;17.23;68.29;99575.94;5093676;28;20199;-62
2022/09/22 07:12:18;;;;;;;0.50;0.50;;;;;;;17.30;68.06;99580.72;5093023;28;20210;-62
2022/09/22 07:14:48;;;;;;;0.47;0.47;;;;;;;17.41;67.92;99572.38;5093596;28;20230;-63
2022/09/22 07:17:15;;;;;;;0.47;0.47;;;;;;;17.58;65.55;99577.47;5092475;28;20227;-64
2022/09/22 07:19:45;;;;;;;0.50;0.50;;;;;;;17.79;66.67;99576.28;5092457;28;20199;-63
2022/09/22 07:22:14;;;;;;;0.60;0.60;;;;;;;17.78;65.50;99577.19;5092667;28;20672;-62
2022/09/22 07:24:41;;;;;;;0.40;0.40;;;;;;;17.81;64.94;99570.97;5091942;28;20199;-62
2022/09/22 07:27:09;;;;;;;0.43;0.43;;;;;;;17.82;64.93;99578.69;5092201;28;20336;-62
2022/09/22 07:29:36;;;;;;;0.33;0.33;;;;;;;17.76;64.60;99579.03;5092560;28;20567;-63
2022/09/22 07:32:04;;;;;;;0.33;0.33;;;;;;;17.82;63.68;99578.69;5092453;28;20203;-63
2022/09/22 07:34:31;;;;;;;0.40;0.40;;;;;;;17.91;66.34;99586.84;5090713;28;20195;-63
2022/09/22 07:36:58;;;;;;;0.43;0.43;;;;;;;18.14;63.34;99578.59;5093717;28;20191;-62
2022/09/22 07:39:26;;;;;;;0.37;0.37;;;;;;;18.29;61.35;99582.88;5092918;28;20294;-62
2022/09/22 07:41:53;;;;;;;0.40;0.40;;;;;;;18.32;61.75;99586.13;5091845;28;20698;-62
2022/09/22 07:47:10;;;;;;;0.30;0.30;;;;;;;18.53;60.85;99593.63;5074926;28;20598;-63
2022/09/22 07:49:39;;;;;;;0.40;0.40;;;;;;;18.70;60.45;99581.31;5091657;28;20207;-63
2022/09/22 07:52:06;;;;;;;0.40;0.40;;;;;;;18.93;59.31;99584.25;5091822;28;20192;-62
2022/09/22 07:54:35;;;;;;;0.40;0.40;;;;;;;19.01;60.06;99582.00;5091966;28;20252;-62
2022/09/22 07:57:05;;;;;;;0.50;0.50;;;;;;;18.98;59.72;99585.63;5091348;28;20196;-63
2022/09/22 07:59:32;;;;;;;0.30;0.30;;;;;;;18.79;59.62;99578.16;5091911;28;20619;-63
2022/09/22 08:01:59;;;;;;;0.40;0.40;;;;;;;18.74;58.72;99572.38;5090243;28;20206;-63
2022/09/22 08:04:30;;;;;;;0.40;0.40;;;;;;;18.83;60.63;99582.22;5090743;28;20223;-62
2022/09/22 08:06:57;;;;;;;0.40;0.40;;;;;;;18.99;60.81;99579.53;5090112;28;20269;-62
2022/09/22 08:09:25;;;;;;;0.30;0.30;;;;;;;18.96;58.17;99573.69;5089288;28;20206;-63
2022/09/22 08:11:54;;;;;;;0.50;0.50;;;;;;;19.13;60.54;99579.47;5087823;28;20208;-62
2022/09/22 08:14:22;;;;;;;0.40;0.40;;;;;;;19.42;58.29;99567.28;5091705;28;20315;-63
2022/09/22 08:16:52;;;;;;;0.40;0.40;;;;;;;19.63;59.56;99565.94;5091260;28;20212;-62
2022/09/22 08:19:22;;;;;;;0.30;0.30;;;;;;;19.70;58.29;99567.19;5092861;28;20203;-62
2022/09/22 08:21:52;;;;;;;0.30;0.30;;;;;;;19.86;56.85;99567.88;5090842;28;20208;-62
2022/09/22 08:24:21;;;;;;;0.37;0.37;;;;;;;19.91;55.75;99571.00;5093032;28;20208;-62
2022/09/22 08:26:51;;;;;;;0.30;0.30;;;;;;;19.66;55.73;99559.69;5090358;28;20654;-62
2022/09/22 08:29:19;;;;;;;0.33;0.33;;;;;;;19.79;58.21;99556.19;5091586;28;20660;-63
2022/09/22 08:31:47;;;;;;;0.40;0.40;;;;;;;19.89;55.48;99570.28;5090373;28;20214;-62
2022/09/22 08:34:16;;;;;;;0.30;0.30;;;;;;;20.08;54.83;99561.25;5092348;28;20209;-63
2022/09/22 08:36:45;;;;;;;0.40;0.40;;;;;;;20.18;56.00;99547.53;5092203;28;20196;-62
2022/09/22 08:39:13;;;;;;;0.40;0.40;;;;;;;20.10;55.17;99559.34;5092208;28;20261;-61
2022/09/22 08:41:48;;;;;;;0.40;0.40;;;;;;;20.02;53.12;99552.09;5092230;28;20203;-62
2022/09/22 08:44:24;;;;;;;0.40;0.40;;;;;;;19.89;52.48;99552.06;5090762;28;20239;-62
2022/09/22 08:46:54;;;;;;;0.40;0.40;;;;;;;20.05;55.02;99556.25;5090350;28;20222;-62
2022/09/22 08:52:19;;;;;;;0.40;0.40;;;;;;;20.26;53.75;99550.47;5090616;28;20208;-63
2022/09/22 08:54:47;;;;;;;0.43;0.43;;;;;;;20.36;52.98;99553.28;5091873;28;20273;-62
2022/09/22 08:57:32;;;;;;;0.50;0.50;;;;;;;20.49;50.61;99541.09;5090305;28;20210;-62
2022/09/22 09:00:05;;;;;;;0.30;0.30;;;;;;;20.57;52.04;99546.63;5091026;28;20205;-62
2022/09/22 09:02:41;;;;;;;0.30;0.30;;;;;;;20.61;52.16;99544.63;5088896;28;20197;-63
2022/09/22 09:05:47;;;;;;;0.30;0.30;;;;;;;20.50;49.62;99547.13;5088229;28;20200;-62
2022/09/22 09:08:34;;;;;;;0.37;0.37;;;;;;;20.45;50.02;99550.06;5087550;28;20204;-62
2022/09/22 09:11:14;;;;;;;0.40;0.40;;;;;;;20.44;51.92;99548.41;5084769;28;20290;-62
2022/09/22 09:13:57;;;;;;;0.40;0.40;;;;;;;20.55;51.10;99543.25;5087189;28;20232;-64
2022/09/22 09:16:40;;;;;;;0.20;0.20;;;;;;;20.73;51.13;99538.56;5086831;28;20582;-62
2022/09/22 09:19:16;;;;;;;0.30;0.30;;;;;;;20.78;50.63;99539.91;5088493;28;20206;-62
2022/09/22 09:21:49;;;;;;;0.30;0.30;;;;;;;20.74;51.39;99535.84;5089108;28;20211;-63
2022/09/22 09:24:26;;;;;;;0.77;0.77;;;;;;;20.70;48.71;99537.03;5087007;28;20296;-62
2022/09/22 09:26:56;;;;;;;0.20;0.20;;;;;;;20.61;51.95;99537.66;5089649;28;20225;-62
2022/09/22 09:29:26;;;;;;;0.40;0.40;;;;;;;20.80;48.94;99530.22;5089561;28;20210;-62
2022/09/22 09:31:57;;;;;;;0.30;0.30;;;;;;;21.13;51.08;99521.00;5089730;28;20218;-63
2022/09/22 09:34:28;;;;;;;0.30;0.30;;;;;;;21.19;49.02;99526.63;5088541;28;20202;-62
2022/09/22 09:37:06;;;;;;;0.30;0.30;;;;;;;21.10;48.53;99522.03;5086950;28;20242;-62
2022/09/22 09:39:36;;;;;;;0.30;0.30;;;;;;;21.22;46.45;99515.97;5087154;28;20293;-62
2022/09/22 09:42:16;;;;;;;0.40;0.40;;;;;;;21.17;48.54;99512.84;5085608;28;20270;-63
2022/09/22 09:44:45;;;;;;;0.40;0.40;;;;;;;21.33;50.55;99512.56;5085611;28;20218;-62
2022/09/22 09:47:21;;;;;;;0.40;0.40;;;;;;;21.28;47.77;99509.47;5087614;28;20229;-62
2022/09/22 09:49:50;;;;;;;0.37;0.37;;;;;;;21.36;48.31;99517.53;5087892;28;20622;-62
2022/09/22 09:52:17;;;;;;;0.30;0.30;;;;;;;21.26;46.79;99500.94;5088170;28;20262;-62
2022/09/22 09:54:46;;;;;;;1.23;1.23;;;;;;;21.33;47.62;99505.56;5087861;28;20212;-62
2022/09/22 09:57:14;;;;;;;0.40;0.40;;;;;;;21.39;49.32;99506.88;5088272;28;20290;-62
2022/09/22 10:02:31;;;;;;;0.30;0.30;;;;;;;21.63;48.56;99499.06;5088244;28;20201;-62
2022/09/22 10:05:01;;;;;;;0.40;0.40;;;;;;;21.64;45.96;99498.97;5088676;28;20252;-62
2022/09/22 10:07:30;;;;;;;0.40;0.40;;;;;;;21.81;44.62;99508.94;5086999;28;20733;-62
2022/09/22 10:10:30;;;;;;;0.40;0.40;;;;;;;21.86;46.81;99511.22;5085684;28;20220;-62
2022/09/22 10:13:20;;;;;;;0.40;0.40;;;;;;;21.67;42.53;99501.34;5083966;28;20199;-62
2022/09/22 10:16:05;;;;;;;0.30;0.30;;;;;;;21.77;45.46;99496.25;5083716;28;20210;-62
2022/09/22 10:18:39;;;;;;;0.40;0.40;;;;;;;21.97;46.75;99495.66;5082934;28;20211;-63
2022/09/22 10:21:13;;;;;;;0.30;0.30;;;;;;;22.15;44.95;99490.78;5083165;28;20205;-62
2022/09/22 10:23:41;;;;;;;0.30;0.30;;;;;;;22.06;45.60;99502.78;5085765;28;20230;-62
2022/09/22 10:26:20;;;;;;;0.23;0.23;;;;;;;22.20;48.88;99493.88;5086794;28;20605;-64
2022/09/22 10:29:07;;;;;;;0.30;0.30;;;;;;;22.41;44.17;99492.25;5092300;28;20211;-63
2022/09/22 10:31:35;;;;;;;0.23;0.23;;;;;;;22.63;44.72;99487.00;5092303;28;20792;-63
2022/09/22 10:34:05;;;;;;;0.30;0.30;;;;;;;22.77;46.11;99489.41;5091533;28;20207;-62
2022/09/22 10:36:34;;;;;;;0.40;0.40;;;;;;;22.74;40.79;99494.88;5088861;28;20248;-63
2022/09/22 10:39:06;;;;;;;0.30;0.30;;;;;;;22.38;39.35;99493.31;5090444;28;20195;-62
2022/09/22 10:41:35;;;;;;;0.30;0.30;;;;;;;21.96;39.42;99486.97;5091281;28;21072;-63
2022/09/22 10:44:13;;;;;;;0.30;0.30;;;;;;;21.86;44.38;99478.13;5092153;28;20218;-64
2022/09/22 10:47:06;;;;;;;0.23;0.23;;;;;;;22.00;41.78;99479.75;5090928;28;20215;-65
2022/09/22 10:49:50;;;;;;;0.40;0.40;;;;;;;22.01;38.58;99477.94;5091428;28;20290;-61
2022/09/22 10:52:22;;;;;;;0.30;0.30;;;;;;;22.13;41.82;99477.88;5091197;28;20623;-63
2022/09/22 10:55:09;;;;;;;0.27;0.27;;;;;;;22.26;38.69;99472.53;5090206;28;20216;-63
2022/09/22 10:58:01;;;;;;;0.30;0.30;;;;;;;22.18;41.11;99480.94;5089638;28;20204;-63
2022/09/22 11:00:28;;;;;;;0.40;0.40;;;;;;;22.13;38.89;99477.03;5090238;28;20210;-63
2022/09/22 11:03:31;;;;;;;0.30;0.30;;;;;;;22.07;40.55;99478.31;5092030;28;20260;-63
2022/09/22 11:12:18;;;;;;;0.37;0.37;;;;;;;21.07;45.07;99474.47;5089170;28;20213;-63
2022/09/22 11:15:02;;;;;;;0.30;0.30;;;;;;;21.12;45.53;99472.41;5090637;28;20320;-63
2022/09/22 11:17:52;;;;;;;0.30;0.30;;;;;;;20.91;44.17;99474.72;5091642;28;20218;-63
2022/09/22 11:20:33;;;;;;;0.30;0.30;;;;;;;20.82;42.80;99473.63;5089958;28;20298;-63
2022/09/22 11:23:36;;;;;;;0.47;0.47;;;;;;;20.82;43.91;99464.97;5091349;28;20211;-63
2022/09/22 11:26:24;;;;;;;0.50;0.50;;;;;;;21.01;44.78;99475.75;5091455;28;20198;-64
2022/09/22 11:29:10;;;;;;;0.20;0.20;;;;;;;20.96;43.16;99472.63;5083743;28;20225;-63
2022/09/22 11:31:47;;;;;;;0.30;0.30;;;;;;;21.01;45.11;99460.09;5092086;28;20201;-63
2022/09/22 11:34:41;;;;;;;0.40;0.40;;;;;;;21.21;45.62;99463.91;5091367;28;20231;-62
2022/09/22 11:37:27;;;;;;;0.40;0.40;;;;;;;21.40;43.48;99461.63;5090224;28;20200;-63
2022/09/22 11:40:14;;;;;;;0.40;0.40;;;;;;;21.53;41.29;99451.94;5092779;28;20206;-63
2022/09/22 11:42:50;;;;;;;0.23;0.23;;;;;;;21.56;43.00;99461.31;5091530;28;20286;-63
2022/09/22 11:45:30;;;;;;;0.30;0.30;;;;;;;21.65;41.85;99466.69;5091439;28;20248;-64
2022/09/22 11:48:07;;;;;;;0.40;0.40;;;;;;;21.78;40.69;99457.00;5094529;28;20276;-62
2022/09/22 11:50:52;;;;;;;0.40;0.40;;;;;;;21.81;40.25;99451.53;5089556;28;20202;-64
2022/09/22 11:53:33;;;;;;;0.30;0.30;;;;;;;21.97;40.20;99452.06;5088661;28;20203;-62
2022/09/22 11:56:18;;;;;;;0.30;0.30;;;;;;;22.10;41.77;99445.94;5088941;28;20301;-63
2022/09/22 11:58:47;;;;;;;0.30;0.30;;;;;;;22.17;40.98;99444.50;5090907;28;20260;-62
2022/09/22 12:01:19;;;;;;;0.30;0.30;;;;;;;22.10;40.86;99456.38;5091033;28;20210;-62
2022/09/22 12:03:49;;;;;;;0.40;0.40;;;;;;;21.98;42.76;99445.91;5089593;28;20641;-63
2022/09/22 12:06:19;;;;;;;0.30;0.30;;;;;;;21.90;43.84;99443.06;5089184;28;20703;-63